Date,TemperatureHighF,TemperatureAvgF,TemperatureLowF,DewpointHighF,DewpointAvgF,DewpointLowF,HumidityHigh,HumidityAvg,HumidityLow,PressureMaxIn,PressureMinIn,WindSpeedMaxMPH,WindSpeedAvgMPH,GustSpeedMaxMPH,PrecipitationSumIn
2013-1-1,32.2,20.0,9.1,25.8,10.2,-0.9,89,66,49,29.84,29.55,7,2,0,0.00
2013-1-2,17.8,9.1,-2.0,5.9,-1.5,-11.5,75,62,50,30.04,29.79,7,2,0,0.00
2013-1-3,20.1,7.1,-4.4,7.1,-3.4,-11.5,81,63,40,30.09,29.93,3,0,0,0.00
2013-1-4,34.5,23.0,5.0,25.5,16.6,0.7,90,77,61,29.92,29.70,5,1,0,0.00
2013-1-5,32.7,24.8,10.8,26.7,14.9,5.0,88,66,54,30.23,29.69,7,2,0,0.00
2013-1-6,30.4,21.3,10.4,23.9,16.8,5.3,97,83,71,30.19,29.87,4,0,0,0.00
2013-1-7,30.4,21.1,5.0,28.7,15.6,0.9,98,80,50,30.35,29.90,4,1,0,0.00
2013-1-8,36.9,19.5,2.8,25.5,13.7,-0.7,92,78,63,30.36,30.17,3,0,0,0.00
2013-1-9,39.6,25.8,14.2,33.8,21.9,12.3,94,86,65,30.40,29.86,4,0,0,0.02
2013-1-10,38.1,35.7,27.1,33.4,28.5,21.8,95,75,65,30.50,29.91,8,4,0,0.02
2013-1-11,35.6,25.5,18.9,27.8,20.2,16.2,89,80,64,30.50,30.25,2,0,0,0.00
2013-1-12,35.4,31.9,30.7,34.9,31.4,30.2,98,98,98,30.17,30.06,0,0,0,0.05
2013-1-13,37.2,34.7,34.2,36.7,34.2,33.7,98,98,98,30.00,29.86,0,0,0,0.01
2013-1-14,52.5,38.2,33.1,45.5,31.8,24.8,98,79,62,30.17,29.77,6,2,0,0.01
2013-1-15,38.3,30.9,26.1,26.4,22.8,19.2,90,72,57,30.26,30.16,4,1,0,0.00
2013-1-16,29.5,27.2,25.3,28.1,25.1,21.2,98,92,78,30.21,29.71,0,0,0,0.00
2013-1-17,34.3,22.9,14.2,31.4,13.2,-7.2,98,70,35,30.06,29.71,4,1,0,0.00
2013-1-18,17.8,8.0,0.5,-3.6,-8.9,-16.7,76,47,27,30.29,30.02,6,2,0,0.00
2013-1-19,30.7,18.0,1.2,26.5,14.7,-4.6,95,87,74,30.23,29.76,1,0,0,0.00
2013-1-20,41.5,27.9,17.4,34.5,21.9,9.6,97,80,48,29.75,29.36,8,2,0,0.19
2013-1-21,22.6,15.5,6.6,10.3,3.4,-3.0,84,59,37,29.91,29.72,5,1,0,0.00
2013-1-22,19.9,10.9,-0.8,10.4,2.3,-13.2,87,69,49,29.93,29.68,5,1,0,0.00
2013-1-23,0.1,-3.4,-7.2,-12.3,-18.1,-22.4,59,48,41,30.02,29.92,8,3,0,0.00
2013-1-24,9.0,-0.4,-14.1,-9.0,-14.5,-21.3,72,52,34,30.03,29.84,9,3,0,0.00
2013-1-25,18.7,9.3,-0.8,-0.9,-4.1,-10.6,75,55,36,30.12,29.95,6,1,0,0.00
2013-1-26,18.3,11.0,3.2,0.4,-3.4,-10.6,73,53,27,30.04,29.91,6,2,0,0.00
2013-1-27,25.7,13.8,3.2,5.0,-1.2,-5.8,68,51,38,30.32,30.02,7,2,0,0.00
2013-1-28,20.3,12.4,1.9,15.6,4.6,-7.2,91,72,35,30.33,30.00,3,0,0,0.00
2013-1-29,32.5,22.1,8.1,27.3,19.2,5.0,98,89,74,30.14,30.00,0,0,0,0.01
2013-1-30,38.8,33.0,26.8,38.3,32.5,26.3,98,98,98,30.08,29.38,2,0,0,0.15
2013-1-31,52.0,37.3,24.8,51.5,29.5,12.7,98,75,48,29.38,28.76,11,3,0,0.72
2013-2-1,24.6,19.0,12.9,16.9,7.0,0.2,72,59,52,29.92,29.39,6,3,0,0.00
2013-2-2,23.9,16.0,9.0,14.5,6.1,-2.4,90,66,48,30.05,29.91,7,1,0,0.00
2013-2-3,26.1,17.8,5.5,15.2,10.7,2.0,90,74,54,29.95,29.60,3,0,0,0.00
2013-2-4,23.7,18.1,9.3,13.7,6.8,-3.4,84,62,43,29.79,29.56,5,2,0,0.00
2013-2-5,23.7,14.4,7.2,7.5,-1.3,-7.5,73,50,32,29.94,29.79,5,1,0,0.00
2013-2-6,31.1,19.6,10.9,21.3,10.0,-7.6,88,67,39,30.20,29.86,5,1,0,0.00
2013-2-7,22.5,13.8,7.2,2.2,-5.3,-13.2,59,43,21,30.46,30.19,10,1,0,0.00
2013-2-8,17.6,13.9,9.3,14.1,8.7,-4.4,92,81,45,30.44,29.84,2,0,0,0.00
2013-2-9,16.5,13.9,10.8,14.6,7.5,3.3,93,76,61,30.08,29.70,9,2,0,0.00
2013-2-10,35.4,18.3,3.0,12.0,3.1,-4.5,76,54,24,30.27,30.07,5,0,0,0.05
2013-2-11,24.6,18.2,8.1,23.3,15.0,2.7,98,87,69,30.27,29.52,0,0,0,0.00
2013-2-12,39.2,33.7,23.9,32.1,29.4,23.4,98,85,73,29.73,29.48,7,2,0,0.37
2013-2-13,39.9,32.1,26.6,27.0,24.0,20.3,81,72,56,29.77,29.68,5,2,0,0.13
2013-2-14,37.4,29.0,23.7,24.6,21.3,19.3,86,74,53,29.95,29.65,3,0,0,0.03
2013-2-15,44.8,32.7,20.8,31.4,24.2,17.6,88,72,56,29.95,29.82,3,0,0,0.01
2013-2-16,37.4,30.4,23.2,28.9,21.4,8.6,96,70,53,29.86,29.69,4,1,0,0.00
2013-2-17,24.3,18.7,11.5,12.7,6.5,0.0,68,59,50,29.68,29.19,10,4,0,0.00
2013-2-18,25.2,16.7,8.8,7.0,0.6,-3.9,62,50,30,29.92,29.38,10,4,0,0.00
2013-2-19,39.4,25.2,9.9,28.4,11.7,-0.2,98,61,20,30.01,29.52,3,0,0,0.00
2013-2-20,32.5,28.1,23.9,30.6,21.4,15.6,98,77,61,29.58,29.39,7,3,0,0.00
2013-2-21,27.0,22.4,15.3,20.0,12.5,4.0,80,65,55,30.12,29.55,9,4,0,0.00
2013-2-22,40.3,28.9,17.1,24.3,20.2,13.9,88,71,49,30.34,30.12,6,1,0,0.10
2013-2-23,32.0,28.7,25.7,30.3,25.7,20.9,98,89,80,30.25,29.91,2,0,0,0.00
2013-2-24,33.1,29.7,28.9,31.8,29.1,28.4,98,98,95,29.92,29.73,0,0,0,0.00
2013-2-25,26.4,24.2,22.1,25.4,23.3,20.6,98,96,94,29.96,29.88,0,0,0,0.00
2013-2-26,39.0,32.7,26.8,32.2,29.9,26.3,98,90,74,30.31,30.22,2,0,0,0.07
2013-2-27,32.9,31.1,29.5,32.4,30.6,29.0,98,98,96,30.05,29.67,3,0,0,0.01
2013-2-28,42.3,34.1,29.1,40.1,33.3,28.6,98,97,90,29.66,29.49,2,0,0,0.78
2013-3-1,37.6,34.3,31.3,32.5,31.2,29.1,98,89,76,29.59,29.49,2,0,0,0.09
2013-3-2,41.5,35.7,29.8,30.6,27.9,25.6,92,73,61,29.59,29.52,4,1,0,0.10
2013-3-3,39.7,33.3,29.1,31.1,27.9,23.8,95,81,69,29.56,29.46,4,1,0,0.01
2013-3-4,35.4,30.4,27.3,25.2,23.4,21.4,83,75,64,29.68,29.44,5,2,0,0.00
2013-3-5,42.8,35.2,29.3,33.2,28.9,23.8,95,78,64,30.06,29.69,5,2,0,0.00
2013-3-6,36.1,32.8,29.7,32.3,29.5,25.0,97,88,73,30.21,30.07,4,2,0,0.01
2013-3-7,34.9,31.5,28.6,26.8,25.1,23.4,83,77,70,30.18,30.05,5,2,0,0.00
2013-3-8,45.9,36.7,31.1,25.6,23.6,21.2,79,60,38,30.17,30.00,4,2,0,0.01
2013-3-9,53.4,37.5,24.3,26.9,20.2,-25.5,86,56,3,30.31,30.14,5,1,0,0.00
2013-3-10,48.7,34.9,22.5,31.5,26.9,20.3,92,74,49,30.34,30.20,3,0,0,0.00
2013-3-11,51.1,37.7,30.6,35.9,31.8,28.7,95,80,54,30.21,30.05,2,0,0,0.00
2013-3-12,40.6,37.0,32.0,40.1,36.2,30.6,98,97,88,30.07,29.67,0,0,0,1.77
2013-3-13,44.2,38.5,30.0,38.9,33.7,26.6,98,84,62,29.69,29.63,4,1,0,0.00
2013-3-14,36.1,27.3,16.3,26.9,18.0,3.6,91,68,54,29.71,29.57,7,2,0,0.00
2013-3-15,37.4,24.9,14.2,25.1,12.5,2.5,89,60,32,29.72,29.51,5,1,0,0.00
2013-3-16,31.6,26.1,22.1,19.9,14.5,11.2,86,62,48,29.79,29.56,4,2,0,0.00
2013-3-17,26.2,19.7,12.2,11.7,7.0,-0.6,84,58,41,30.21,29.79,8,2,0,0.00
2013-3-18,36.5,28.6,5.7,16.1,9.0,-0.8,74,44,25,30.35,30.18,2,0,0,0.00
2013-3-19,21.6,21.6,21.6,19.9,19.9,19.9,93,93,93,29.70,29.69,0,0,0,0.00
2013-3-20,37.9,27.0,19.2,27.2,21.2,17.7,96,80,53,29.68,29.56,0,0,0,0.02
2013-3-21,47.1,26.7,13.1,21.7,16.2,9.7,86,68,28,29.70,29.53,2,0,0,0.68
2013-3-22,37.2,28.6,18.7,24.3,18.2,13.6,86,66,47,29.60,29.54,4,1,0,0.03
2013-3-23,36.5,30.0,25.2,27.0,22.4,18.1,87,73,59,29.62,29.44,6,3,0,0.00
2013-3-24,42.4,34.4,27.7,27.8,25.4,23.5,86,70,54,29.72,29.61,6,1,0,0.00
2013-3-25,42.8,33.7,21.6,30.2,26.2,19.9,95,75,56,29.72,29.51,4,1,0,0.00
2013-3-26,46.0,37.9,30.4,28.0,25.4,22.4,77,61,42,29.71,29.54,5,2,0,0.00
2013-3-27,47.5,39.2,29.1,32.9,29.1,23.8,90,68,50,29.85,29.67,4,2,0,0.00
2013-3-28,46.4,38.8,31.8,35.8,32.8,31.3,98,80,59,29.97,29.85,4,1,0,0.00
2013-3-29,50.2,42.3,37.0,37.3,33.8,30.8,88,72,57,29.98,29.93,5,2,0,0.00
2013-3-30,50.4,40.0,28.9,32.8,26.0,17.1,94,61,30,30.01,29.93,4,1,0,0.00
2013-3-31,54.0,44.2,27.3,37.9,27.6,20.5,95,54,34,30.02,29.73,5,1,0,0.00
2013-4-1,52.9,39.6,29.3,46.1,34.4,15.6,98,83,55,29.73,29.39,7,2,0,0.54
2013-4-2,34.9,27.9,24.1,20.2,15.7,11.9,75,61,41,29.74,29.62,6,2,0,0.00
2013-4-3,39.9,30.6,25.3,21.0,14.8,12.0,70,53,32,30.02,29.73,6,4,0,0.00
2013-4-4,51.8,37.7,28.4,23.7,15.1,9.3,72,42,20,30.15,29.88,6,2,0,0.00
2013-4-5,55.6,38.6,29.3,32.3,25.9,18.9,83,62,32,29.88,29.64,5,1,0,0.00
2013-4-6,37.8,29.9,21.7,22.9,11.7,3.6,84,49,24,30.26,29.77,8,2,0,0.00
2013-4-7,52.2,40.5,26.1,34.7,23.5,13.7,79,52,34,30.25,29.85,3,0,0,0.00
2013-4-8,60.1,47.3,37.8,38.5,34.4,29.7,85,63,34,30.10,29.84,5,1,0,0.00
2013-4-9,52.5,41.5,37.0,45.6,39.1,31.9,98,91,75,30.07,29.86,5,1,0,0.32
2013-4-10,55.4,44.1,37.9,47.4,41.1,37.4,98,90,66,29.95,29.85,6,1,0,0.04
2013-4-11,49.5,41.1,34.9,40.1,28.1,17.3,98,65,31,30.16,29.84,3,1,0,0.00
2013-4-12,36.0,31.6,29.5,30.2,25.5,17.2,98,80,51,30.23,29.84,3,0,0,0.00
2013-4-13,46.0,37.4,30.6,40.2,35.3,30.1,98,92,79,29.86,29.70,3,0,0,0.62
2013-4-14,49.3,39.0,32.2,40.3,34.5,30.4,98,85,57,30.13,29.80,5,1,0,0.02
2013-4-15,59.7,42.5,27.3,37.8,32.5,26.8,98,72,38,30.33,30.13,3,1,0,0.00
2013-4-16,58.5,44.3,30.2,53.9,40.8,29.7,98,89,59,30.33,29.87,3,0,0,0.05
2013-4-17,58.6,49.0,34.7,50.0,35.4,29.2,98,61,41,30.28,29.89,5,2,0,0.01
2013-4-18,54.3,42.5,29.1,38.7,31.7,24.7,90,68,43,30.41,30.07,3,0,0,0.00
2013-4-19,72.7,59.8,44.4,62.7,53.6,38.2,98,81,66,30.06,29.48,4,1,0,0.00
2013-4-20,62.8,49.1,37.9,62.2,37.2,23.6,98,66,43,30.13,29.51,5,2,0,0.11
2013-4-21,52.3,39.1,29.7,23.7,20.8,14.7,71,50,24,30.66,30.13,5,1,0,0.00
2013-4-22,55.9,39.5,24.8,26.3,20.5,-18.3,81,52,5,30.78,30.62,4,1,0,0.00
2013-4-23,42.6,39.0,28.9,38.4,34.4,24.7,97,83,73,30.57,30.24,2,0,0,0.00
2013-4-24,75.4,56.0,38.3,58.6,48.3,37.8,98,78,56,30.21,29.69,3,1,0,0.00
2013-4-25,59.0,52.9,48.4,51.0,36.5,28.3,98,56,36,30.17,29.70,5,2,0,0.00
2013-4-26,61.9,45.7,28.4,37.7,31.1,25.0,87,61,33,30.42,30.29,4,0,0,0.00
2013-4-27,68.7,49.9,32.0,39.8,35.9,30.5,95,64,32,30.41,30.22,3,0,0,0.00
2013-4-28,72.5,52.5,32.4,43.6,37.7,30.9,95,62,31,30.29,30.13,5,1,0,0.00
2013-4-29,73.0,54.2,36.9,48.6,40.6,33.8,91,64,33,30.22,30.10,2,0,0,0.00
2013-4-30,77.9,57.1,39.4,47.6,41.3,36.7,93,60,31,30.33,30.20,4,1,0,0.00
2013-5-1,81.5,59.0,36.9,43.2,37.1,17.2,89,52,9,30.43,30.32,4,1,0,0.00
2013-5-2,80.1,56.4,40.5,49.7,40.7,34.6,87,59,27,30.48,30.34,3,0,0,0.00
2013-5-3,72.0,52.8,32.9,47.5,40.7,30.6,92,66,41,30.53,30.33,3,1,0,0.00
2013-5-4,75.9,56.3,39.4,49.5,41.3,31.8,98,64,22,30.34,30.18,3,1,0,0.00
2013-5-5,76.3,55.0,34.2,45.0,39.8,32.7,96,62,28,30.29,30.12,3,1,0,0.00
2013-5-6,78.6,57.4,36.9,49.0,36.6,-29.7,96,60,1,30.22,30.04,3,1,0,0.00
2013-5-7,83.8,61.4,39.2,54.3,45.2,38.4,97,63,24,30.12,29.98,3,0,0,0.00
2013-5-8,81.1,62.2,46.4,64.4,55.5,45.9,98,81,43,30.17,30.05,5,1,0,0.05
2013-5-9,70.0,60.5,56.8,63.8,59.0,56.2,98,95,74,30.04,29.84,2,0,0,0.56
2013-5-10,74.3,62.2,54.0,67.4,59.9,53.4,98,93,65,29.89,29.85,2,0,0,0.04
2013-5-11,62.2,58.2,55.0,61.6,57.6,54.4,98,98,98,29.85,29.59,2,0,0,0.62
2013-5-12,69.1,57.3,45.5,60.6,51.2,31.6,98,82,52,29.66,29.47,3,1,0,0.01
2013-5-13,54.3,46.8,39.7,37.3,32.5,29.0,80,58,42,29.97,29.66,5,2,0,0.00
2013-5-14,57.9,46.0,31.1,34.9,31.3,25.3,95,61,34,29.98,29.89,5,1,0,0.00
2013-5-15,68.7,47.0,29.5,50.9,38.2,28.0,98,76,36,29.98,29.60,4,0,0,0.16
2013-5-16,74.7,58.9,45.7,58.0,46.4,40.9,98,69,31,29.76,29.50,5,1,0,0.00
2013-5-17,64.9,54.9,47.3,45.3,42.3,40.0,85,64,42,30.18,29.76,6,2,0,0.00
2013-5-18,70.9,55.0,40.3,52.3,46.0,38.9,97,74,34,30.27,30.18,2,0,0,0.06
2013-5-19,61.9,52.3,39.2,59.5,41.9,-43.4,98,85,1,30.30,30.13,2,0,0,0.20
2013-5-20,69.3,59.0,52.3,65.8,56.9,51.8,98,93,72,30.14,29.86,4,1,0,0.42
2013-5-21,59.0,53.2,50.0,58.4,52.6,49.5,98,98,98,30.01,29.88,2,0,0,0.53
2013-5-22,58.6,53.9,50.5,58.0,53.4,50.0,98,98,98,29.96,29.86,2,0,0,0.18
2013-5-23,68.5,60.0,51.3,67.9,59.3,50.8,98,98,93,29.88,29.71,3,0,0,0.03
2013-5-24,67.3,59.4,46.9,66.7,57.8,46.4,98,94,83,29.82,29.59,6,1,0,0.72
2013-5-25,48.2,44.4,39.2,46.8,43.5,38.7,98,96,86,29.81,29.65,5,2,0,0.36
2013-5-26,55.4,46.8,39.7,44.8,40.8,37.8,98,80,64,29.94,29.61,5,2,0,0.00
2013-5-27,65.3,51.2,36.0,45.9,39.9,35.5,98,70,38,30.14,29.95,5,1,0,0.00
2013-5-28,73.2,56.1,36.1,51.5,44.4,35.6,98,70,36,30.20,30.08,3,0,0,0.00
2013-5-29,57.0,51.9,47.3,56.4,51.0,45.1,98,97,87,30.14,29.95,0,0,0,0.21
2013-5-30,82.9,68.4,52.3,67.3,60.7,51.8,98,79,52,30.01,29.93,6,2,0,0.00
2013-5-31,92.3,73.3,58.1,74.9,65.9,57.5,98,80,50,30.02,29.84,3,0,0,0.00
2013-6-1,93.4,73.4,60.6,76.6,66.4,60.0,98,82,39,29.89,29.73,5,1,0,0.00
2013-6-2,89.8,73.2,62.8,77.0,68.3,62.2,98,87,59,29.75,29.54,3,1,0,0.19
2013-6-3,79.7,67.2,59.2,70.5,60.1,48.9,98,80,45,29.73,29.62,4,1,0,0.00
2013-6-4,62.2,56.9,52.5,49.0,45.8,44.0,75,67,56,30.02,29.72,5,2,0,0.00
2013-6-5,72.3,60.0,44.2,48.3,44.2,33.1,96,60,28,30.12,30.01,3,1,0,0.00
2013-6-6,72.9,59.6,50.0,54.5,48.3,44.4,89,69,46,30.18,30.08,3,0,0,0.00
2013-6-8,69.1,63.5,58.6,62.8,58.6,56.3,96,84,79,29.93,29.76,5,2,0,0.00
2013-6-9,74.3,64.5,53.2,61.6,57.1,52.6,98,78,58,30.12,29.93,4,1,0,0.00
2013-6-10,72.5,61.3,49.8,63.7,57.2,49.3,98,87,64,30.17,29.98,2,0,0,0.00
2013-6-11,58.8,55.6,53.8,58.2,55.0,53.2,98,98,96,29.99,29.54,2,0,0,0.81
2013-6-12,62.2,57.4,52.7,57.7,54.9,52.2,98,92,79,29.78,29.51,4,1,0,0.03
2013-6-13,71.8,58.7,46.4,61.8,55.9,45.9,98,91,66,29.77,29.67,2,0,0,0.00
2013-6-14,77.4,63.4,52.2,60.2,54.8,51.2,98,76,41,29.72,29.63,3,1,0,0.00
2013-6-15,74.8,61.8,46.0,53.7,48.5,43.6,96,65,40,29.87,29.72,4,1,0,0.00
2013-6-16,77.2,60.0,46.4,63.1,55.7,45.8,98,87,53,29.87,29.65,2,0,0,0.08
2013-6-17,77.5,61.8,53.1,68.7,59.7,52.5,98,94,58,29.83,29.67,5,0,0,0.22
2013-6-18,66.6,58.1,51.3,61.4,56.5,50.8,98,95,77,29.94,29.81,2,0,0,0.01
2013-6-19,75.0,59.1,44.1,55.3,48.8,43.6,98,73,39,30.11,29.90,4,0,0,0.00
2013-6-20,77.9,60.6,42.4,56.8,50.0,41.9,98,73,35,30.22,30.11,3,0,0,0.00
2013-6-21,80.6,62.8,48.6,62.8,55.0,48.1,98,79,44,30.20,30.13,4,0,0,0.00
2013-6-22,79.9,65.3,54.3,70.5,62.4,53.5,98,91,65,30.18,30.07,3,0,0,0.07
2013-6-23,81.3,67.8,62.1,78.7,67.0,61.5,98,97,90,30.09,29.91,4,0,0,0.48
2013-6-24,88.7,72.3,61.7,73.8,68.3,60.8,98,89,60,29.91,29.78,4,1,0,0.01
2013-6-25,90.5,75.5,67.1,77.3,69.9,62.6,98,84,58,29.82,29.63,5,1,0,0.00
2013-6-26,74.3,68.3,63.1,72.8,67.6,62.5,98,98,93,29.80,29.64,0,0,0,0.00
2013-6-27,73.9,65.2,59.4,71.1,64.2,58.8,98,97,88,29.80,29.73,3,0,0,0.00
2013-6-28,63.3,60.8,57.7,62.7,60.1,57.1,98,98,96,29.76,29.48,3,0,0,1.07
2013-6-29,75.6,66.1,61.7,75.0,65.2,61.1,98,97,76,29.62,29.46,6,0,0,0.97
2013-6-30,83.7,71.2,60.1,76.2,68.2,59.0,98,91,64,29.86,29.62,2,0,0,0.01
2013-7-1,78.4,70.8,63.7,75.4,69.7,63.1,98,96,88,30.03,29.85,0,0,0,0.53
2013-7-2,69.3,63.5,59.9,65.7,61.9,58.0,98,95,85,30.18,30.00,2,0,0,0.60
2013-7-3,83.1,70.4,59.4,79.6,68.8,58.8,98,95,78,30.15,30.00,3,0,0,0.01
2013-7-4,90.9,76.2,65.8,82.1,74.0,65.2,98,93,71,30.11,29.98,2,0,0,0.00
2013-7-5,91.9,77.9,67.5,80.3,73.2,66.9,98,87,58,30.06,29.96,3,0,0,0.00
2013-7-6,85.3,75.7,67.3,75.2,70.1,65.3,98,84,63,29.99,29.90,5,1,0,0.00
2013-7-7,84.4,76.0,67.5,76.7,70.5,64.6,98,84,64,29.94,29.83,3,1,0,0.00
2013-7-8,72.1,69.4,66.7,71.5,68.8,66.1,98,98,98,30.02,29.83,0,0,0,0.59
2013-7-9,72.3,68.2,65.7,71.7,67.6,65.1,98,98,98,30.07,30.00,2,0,0,0.21
2013-7-10,66.9,65.6,64.6,66.3,65.0,64.0,98,98,98,30.02,29.73,0,0,0,0.85
2013-7-11,76.6,68.3,60.6,76.0,67.0,60.0,98,96,80,29.95,29.70,3,0,0,0.26
2013-7-12,81.9,67.4,55.2,70.4,63.4,54.6,98,88,65,30.17,29.94,2,0,0,0.00
2013-7-13,79.2,69.0,57.7,74.1,66.4,57.1,98,92,69,30.27,30.17,2,0,0,0.61
2013-7-14,85.1,72.6,61.3,79.0,70.7,60.7,98,94,76,30.24,30.11,3,0,0,0.00
2013-7-15,90.0,75.4,62.2,76.2,69.7,61.6,98,84,55,30.15,30.02,3,0,0,0.00
2013-7-16,89.6,75.8,64.0,76.1,70.1,63.4,98,84,59,30.13,30.05,3,1,0,0.00
2013-7-17,92.7,75.7,62.2,80.5,71.7,61.6,98,89,60,30.13,29.87,3,0,0,0.03
2013-7-18,87.1,75.6,66.6,81.1,73.5,66.0,98,94,72,29.95,29.84,2,0,0,0.14
2013-7-19,91.6,77.9,67.6,80.9,73.6,67.0,98,88,65,29.88,29.57,6,1,0,0.02
2013-7-20,85.8,73.7,64.4,78.0,69.9,63.5,98,89,66,29.73,29.53,4,1,0,0.00
2013-7-21,80.4,68.9,59.2,71.0,65.3,58.6,98,89,65,29.97,29.73,2,0,0,0.00
2013-7-22,74.5,65.7,57.0,70.5,64.2,56.4,98,95,80,30.00,29.86,2,0,0,0.00
2013-7-23,68.5,65.3,62.2,67.9,64.7,61.6,98,98,98,29.86,29.50,2,0,0,1.26
2013-7-24,76.6,66.6,56.1,74.2,62.7,51.3,98,88,69,29.94,29.52,7,2,0,0.00
2013-7-25,73.0,61.3,48.0,66.3,57.3,47.5,98,87,68,30.08,29.94,3,0,0,0.00
2013-7-26,71.8,64.2,60.4,67.4,63.0,59.8,98,96,85,30.06,29.89,3,0,0,0.00
2013-7-27,85.1,69.6,56.8,73.7,65.9,56.2,98,89,67,29.97,29.89,2,0,0,0.00
2013-7-28,79.3,67.0,56.8,73.9,65.6,56.2,98,96,81,29.98,29.92,3,0,0,0.03
2013-7-29,80.1,68.6,60.8,76.5,67.6,60.2,98,97,87,30.01,29.89,3,0,0,0.15
2013-7-30,77.7,66.0,56.3,64.2,59.8,55.7,98,82,56,30.06,29.97,4,1,0,0.00
2013-7-31,81.9,66.3,53.8,69.5,61.6,53.2,98,87,55,30.09,29.97,2,0,0,0.00
2013-8-1,79.0,64.9,53.6,71.6,63.0,53.0,98,94,75,30.01,29.80,2,0,0,0.08
2013-8-2,78.3,67.6,59.2,75.2,65.4,58.6,98,93,70,29.81,29.68,2,0,0,0.29
2013-8-3,81.1,64.9,53.2,67.9,59.6,52.6,98,84,57,29.79,29.68,4,1,0,0.00
2013-8-4,73.6,65.1,57.9,62.5,59.4,54.9,98,82,67,29.82,29.71,4,2,0,0.00
2013-8-5,70.7,61.5,51.4,56.9,53.1,48.2,94,75,52,30.00,29.79,6,2,0,0.00
2013-8-6,77.4,60.9,45.5,63.9,55.9,45.0,98,85,56,30.12,30.00,2,0,0,0.00
2013-8-7,78.8,63.2,49.1,68.8,59.9,48.6,98,90,66,30.16,30.05,3,0,0,0.00
2013-8-8,78.4,67.1,59.9,76.2,66.4,59.3,98,98,93,30.06,29.94,3,0,0,0.03
2013-8-9,70.5,68.0,63.7,69.9,67.4,63.1,98,98,98,29.96,29.69,2,0,0,2.22
2013-8-10,73.8,66.4,59.4,65.6,59.3,54.2,98,80,52,29.96,29.70,7,2,0,0.01
2013-8-11,74.5,61.5,49.1,64.2,56.4,48.6,98,85,57,30.02,29.94,3,1,0,0.00
2013-8-12,80.1,64.5,52.0,67.2,59.7,51.5,98,86,57,29.98,29.85,4,0,0,0.00
2013-8-13,64.4,61.1,55.2,63.8,60.5,54.6,98,98,98,29.87,29.63,0,0,0,0.79
2013-8-14,71.8,63.6,59.7,65.8,60.8,55.7,98,91,70,29.84,29.57,6,1,0,0.01
2013-8-15,73.8,61.6,50.7,65.8,56.7,50.2,98,86,57,30.04,29.84,5,1,0,0.00
2013-8-16,77.4,61.4,47.7,69.9,58.3,47.2,98,91,60,30.14,30.02,3,0,0,0.00
2013-8-17,77.9,63.7,52.7,66.4,58.1,52.2,98,84,54,30.25,30.15,4,1,0,0.00
2013-8-18,75.4,61.4,49.1,73.6,59.9,48.6,98,95,70,30.26,30.01,3,0,0,0.00
2013-8-19,80.1,66.8,51.8,69.7,62.0,51.3,98,86,61,30.02,29.87,6,1,0,0.00
2013-8-20,82.8,69.0,57.4,75.5,64.8,56.8,98,88,54,30.04,29.92,4,0,0,0.00
2013-8-21,88.3,70.4,58.1,78.7,67.5,57.5,98,92,70,30.10,29.93,2,0,0,0.00
2013-8-22,85.3,71.5,59.4,78.0,68.8,58.8,98,92,66,29.95,29.70,3,0,0,0.00
2013-8-23,77.5,66.7,51.8,70.7,59.9,51.3,98,81,54,30.12,29.73,4,1,0,0.00
2013-8-24,78.6,60.1,44.4,65.6,53.9,43.9,98,84,45,30.30,30.13,4,0,0,0.00
2013-8-25,80.4,61.1,44.8,67.2,56.6,44.3,98,87,55,30.33,30.09,3,0,0,0.00
2013-8-26,75.2,64.5,57.7,74.6,63.9,57.1,98,98,98,30.09,29.82,3,0,0,0.00
2013-8-27,82.8,69.3,59.9,81.3,68.6,59.3,98,98,86,29.86,29.78,2,0,0,0.00
2013-8-28,84.6,69.4,58.5,82.7,68.7,57.9,98,98,93,29.97,29.79,2,0,0,0.04
2013-8-29,65.3,62.6,60.6,64.7,62.0,60.0,98,98,98,30.06,29.93,0,0,0,0.05
2013-8-30,80.6,67.1,59.5,79.5,66.5,58.9,98,98,91,29.99,29.73,4,0,0,0.03
2013-8-31,77.9,69.7,64.8,77.3,69.1,64.2,98,98,98,29.74,29.70,1,0,0,0.00
2013-9-1,84.7,72.6,65.1,83.1,72.0,64.5,98,98,93,29.84,29.69,3,0,0,0.09
2013-9-2,70.0,67.6,65.8,69.4,67.0,65.2,98,98,98,29.82,29.67,2,0,0,1.32
2013-9-3,73.6,66.4,60.1,73.0,65.8,59.5,98,98,98,29.71,29.63,2,0,0,0.13
2013-9-4,77.7,67.3,61.7,70.1,63.7,57.7,98,90,55,29.85,29.69,5,2,0,0.00
2013-9-5,66.7,58.2,45.5,60.7,53.2,45.0,98,86,54,30.10,29.80,4,1,0,0.00
2013-9-6,71.4,53.2,37.8,63.7,48.2,37.3,98,86,49,30.20,30.00,3,0,0,0.00
2013-9-7,72.7,59.0,46.9,70.8,58.3,46.4,98,98,82,29.99,29.74,2,0,0,0.00
2013-9-8,62.6,56.4,42.6,62.0,54.9,42.1,98,95,67,30.04,29.67,6,2,0,0.01
2013-9-9,68.5,51.6,37.0,66.5,50.0,36.5,98,95,65,30.16,30.03,2,0,0,0.00
2013-9-10,64.9,55.9,45.5,64.3,55.3,45.0,98,98,98,30.08,29.99,2,0,0,0.00
2013-9-11,92.3,72.1,61.2,89.4,70.6,60.6,98,96,61,30.02,29.85,3,0,0,0.34
2013-9-12,77.4,68.2,64.6,76.8,67.6,64.0,98,98,98,29.93,29.60,3,0,0,0.61
2013-9-13,65.8,61.2,54.1,65.2,60.6,53.5,98,98,98,29.70,29.55,3,0,0,0.51
2013-9-14,65.1,56.6,47.1,64.5,56.0,46.6,98,98,98,29.99,29.70,3,1,0,0.13
2013-9-15,69.4,54.0,40.8,68.8,53.5,40.3,98,98,97,30.09,29.93,3,0,0,0.00
2013-9-16,59.9,52.8,41.4,59.3,51.3,40.9,98,95,70,30.23,29.92,4,1,0,0.00
2013-9-17,64.0,48.8,36.0,58.7,44.8,35.5,98,88,54,30.39,30.24,5,0,0,0.00
2013-9-18,71.2,51.8,37.2,66.5,49.7,36.7,98,94,60,30.29,30.08,2,0,0,0.00
2013-9-19,74.8,56.2,42.8,71.6,55.0,42.3,98,96,74,30.11,29.99,2,0,0,0.00
2013-9-20,74.5,57.8,44.8,73.9,57.2,44.3,98,98,90,30.10,29.97,2,0,0,0.00
2013-9-21,70.0,57.3,45.5,69.4,56.7,45.0,98,98,98,29.96,29.66,4,0,0,0.00
2013-9-22,71.6,60.3,50.2,70.3,59.7,49.7,98,98,93,29.73,29.50,5,2,0,0.44
2013-9-23,53.4,48.8,43.3,52.8,48.3,42.8,98,98,98,29.91,29.73,6,2,0,0.00
2013-9-24,58.8,50.2,45.1,54.6,49.1,44.6,98,96,76,29.90,29.78,7,2,0,0.00
2013-9-25,61.2,49.0,40.5,60.6,48.5,40.0,98,98,98,29.99,29.84,3,0,0,0.00
2013-9-26,65.1,50.0,36.0,62.8,49.1,35.5,98,97,84,30.15,29.99,4,1,0,0.00
2013-9-27,71.1,55.9,47.1,67.9,55.2,46.6,98,97,84,30.25,30.15,2,0,0,0.00
2013-9-28,72.5,55.5,44.1,69.8,53.8,43.6,98,95,69,30.32,30.23,2,0,0,0.00
2013-9-29,71.2,53.8,42.6,69.9,52.9,42.1,98,97,73,30.24,30.07,2,0,0,0.00
2013-9-30,71.2,53.4,39.9,70.5,52.5,39.4,98,97,73,30.08,29.93,1,0,0,0.00
2013-10-1,75.7,57.8,42.8,71.5,55.1,42.3,98,92,59,29.95,29.80,2,0,0,0.00
2013-10-2,74.7,61.5,49.6,74.1,60.5,49.1,98,97,75,29.87,29.75,4,1,0,0.00
2013-10-3,72.9,61.9,48.2,64.7,54.6,47.7,98,79,55,30.04,29.87,5,1,0,0.00
2013-10-4,66.9,54.7,43.5,66.3,54.2,43.0,98,98,98,30.08,30.00,3,0,0,0.00
2013-10-5,62.6,55.5,47.5,61.8,54.9,47.0,98,98,90,30.12,30.03,1,0,0,0.00
2013-10-6,52.9,48.7,45.7,52.0,48.0,45.2,98,97,81,30.25,30.11,2,0,0,0.12
2013-10-7,62.2,51.8,46.0,61.6,51.3,45.5,98,98,98,30.15,29.66,2,0,0,0.82
2013-10-8,57.6,50.9,37.6,52.8,47.2,37.1,98,88,64,30.36,29.80,6,2,0,0.01
2013-10-9,62.2,45.0,31.5,57.3,42.0,31.0,98,91,59,30.47,30.34,3,0,0,0.00
2013-10-10,65.1,47.7,34.9,60.0,45.5,34.4,98,93,59,30.34,30.17,2,0,0,0.00
2013-10-11,67.3,52.5,43.5,63.8,50.9,43.0,98,95,59,30.18,30.11,0,0,0,0.00
2013-10-12,56.7,50.9,44.6,56.1,50.3,44.1,98,98,98,30.37,30.17,1,0,0,0.00
2013-10-13,54.9,51.6,49.5,54.3,51.0,49.0,98,98,98,30.42,30.32,1,0,0,0.00
2013-10-14,64.6,54.2,45.5,64.0,53.6,45.0,98,98,98,30.32,30.17,2,0,0,0.00
2013-10-15,65.1,56.0,47.1,64.5,55.5,46.6,98,98,98,30.24,30.14,1,0,0,0.00
2013-10-16,59.2,54.0,46.6,58.6,53.5,46.1,98,98,98,30.14,29.84,0,0,0,0.00
2013-10-17,69.8,53.8,45.3,67.9,51.6,44.8,98,93,69,29.85,29.68,3,0,0,0.00
2013-10-18,61.7,53.9,48.6,61.1,52.9,48.1,98,96,82,29.79,29.56,4,1,0,0.30
2013-10-19,64.2,52.0,42.3,56.5,48.6,41.8,98,90,58,29.86,29.66,3,0,0,0.00
2013-10-20,59.0,49.8,41.9,51.7,44.3,38.1,98,83,56,29.90,29.57,5,1,0,0.00
2013-10-21,60.1,47.0,34.0,54.1,44.7,33.5,98,92,69,30.02,29.89,2,0,0,0.00
2013-10-22,53.1,46.0,40.6,52.5,45.5,40.1,98,98,98,29.89,29.64,3,0,0,0.00
2013-10-23,53.4,42.4,32.7,46.7,38.9,32.2,98,88,62,29.70,29.52,4,0,0,0.00
2013-10-24,47.3,41.0,33.3,41.6,36.8,31.1,98,86,58,29.77,29.56,5,2,0,0.00
2013-10-25,44.4,40.1,37.2,39.6,35.2,30.6,98,83,67,30.04,29.77,5,2,0,0.00
2013-10-26,44.8,38.4,28.2,44.1,35.8,27.7,98,91,74,30.04,29.77,3,0,0,0.00
2013-10-27,51.1,41.9,35.6,47.9,39.3,34.9,98,91,66,29.93,29.70,6,1,0,0.00
2013-10-28,52.2,37.7,27.3,45.6,34.2,26.8,98,88,69,30.31,29.93,6,1,0,0.00
2013-10-29,46.6,31.0,20.7,29.5,24.5,20.2,98,80,46,30.42,30.31,3,0,0,0.00
2013-10-30,46.0,34.8,23.9,36.2,30.6,23.4,98,86,64,30.33,30.16,5,1,0,0.00
2013-10-31,45.9,37.0,28.2,45.4,36.5,27.7,98,98,98,30.22,29.71,0,0,0,0.55
2013-11-1,64.0,57.6,45.7,63.4,55.2,45.2,98,92,65,29.71,29.29,9,2,0,0.90
2013-11-2,61.0,50.3,39.4,57.3,47.1,38.9,98,90,68,29.75,29.54,7,1,0,0.00
2013-11-3,41.2,35.4,25.0,40.1,27.5,20.2,98,75,45,30.41,29.75,4,2,0,0.00
2013-11-4,40.1,28.2,19.6,26.1,22.4,19.1,98,81,48,30.70,30.42,4,0,0,0.00
2013-11-5,45.1,30.9,21.2,32.9,26.9,20.7,98,87,58,30.71,30.47,3,0,0,0.00
2013-11-6,53.4,39.3,27.7,52.0,38.6,27.2,98,97,89,30.47,29.93,2,0,0,0.00
2013-11-7,52.0,44.9,36.7,51.5,43.9,31.9,98,96,76,29.93,29.63,5,1,0,0.07
2013-11-8,39.9,36.3,34.0,36.5,31.1,26.8,95,81,69,29.91,29.74,6,3,0,0.00
2013-11-9,38.7,34.7,31.3,32.4,27.8,25.0,98,76,63,30.05,29.89,6,2,0,0.00
2013-11-10,39.7,34.6,31.1,39.2,34.1,30.6,98,98,98,29.95,29.62,3,0,0,0.07
2013-11-11,40.5,36.9,33.6,38.2,35.1,32.5,98,94,74,29.94,29.69,6,2,0,0.00
2013-11-12,37.8,28.8,25.5,37.3,25.0,18.4,98,86,74,30.06,29.74,7,2,0,0.00
2013-11-13,29.1,25.7,19.2,24.0,17.5,14.1,91,71,57,30.18,30.01,6,2,0,0.00
2013-11-14,44.2,33.9,25.3,37.6,30.4,22.8,98,88,71,30.04,29.94,6,2,0,0.00
2013-11-15,47.3,33.3,25.3,36.2,29.5,24.8,98,87,59,30.11,30.04,2,0,0,0.00
2013-11-16,54.5,38.0,28.9,37.8,31.5,28.4,98,81,39,30.29,30.10,1,0,0,0.00
2013-11-17,39.7,33.5,27.3,39.2,33.0,26.8,98,98,98,30.29,29.84,2,0,0,0.21
2013-11-18,56.3,46.8,38.8,53.7,42.7,34.0,98,86,62,29.82,29.38,5,1,0,0.69
2013-11-19,44.8,32.8,28.0,35.4,24.0,17.6,83,70,64,30.20,29.49,10,4,0,0.00
2013-11-20,38.3,28.5,21.2,19.8,16.9,9.9,92,63,31,30.61,30.20,3,1,0,0.00
2013-11-21,43.5,29.0,18.5,25.1,19.9,15.5,98,73,35,30.61,30.30,2,0,0,0.00
2013-11-22,35.8,32.3,27.3,35.3,31.1,22.7,98,95,79,30.31,29.66,0,0,0,0.00
2013-11-23,39.7,31.2,23.2,39.2,27.1,18.5,98,85,67,29.78,29.59,7,2,0,0.00
2013-11-24,22.5,17.1,12.9,20.0,9.5,4.0,98,72,61,30.03,29.63,8,3,0,0.00
2013-11-25,25.9,19.0,11.7,16.5,6.3,0.0,75,58,34,30.19,30.03,9,2,0,0.00
2013-11-26,32.2,27.3,22.5,31.7,25.8,16.2,98,94,74,30.22,30.06,0,0,0,0.00
2013-11-27,39.0,34.5,28.4,38.5,33.9,27.9,98,98,89,30.05,29.13,10,1,0,2.34
2013-11-28,34.7,23.2,17.6,33.3,17.2,9.8,98,78,64,30.30,29.21,8,3,0,0.00
2013-11-29,25.5,17.2,7.7,11.1,9.0,6.5,98,71,47,30.65,30.28,4,1,0,0.00
2013-11-30,25.0,15.1,3.4,20.5,11.7,3.0,98,87,59,30.71,30.31,4,0,0,0.00
2013-12-1,36.1,29.9,20.5,35.3,29.4,20.0,98,98,96,30.31,29.99,0,0,0,0.00
2013-12-2,38.7,33.6,30.9,38.2,33.1,30.4,98,98,98,29.99,29.87,0,0,0,0.00
2013-12-3,38.1,32.2,28.4,37.6,31.7,27.9,98,98,98,29.88,29.80,3,0,0,0.00
2013-12-4,39.2,30.4,23.7,33.2,28.5,23.2,98,93,76,30.17,29.86,5,0,0,0.00
2013-12-5,32.5,30.0,24.4,32.0,29.5,23.9,98,98,98,30.23,29.84,0,0,0,0.09
2013-12-6,40.8,35.9,32.5,39.4,32.6,23.8,98,88,65,30.02,29.81,6,1,0,0.23
2013-12-7,34.3,29.1,22.8,28.1,19.9,13.6,84,68,57,30.33,29.96,7,2,0,0.00
2013-12-8,27.5,23.2,21.0,18.6,12.9,10.1,86,65,51,30.47,30.32,6,2,0,0.00
2013-12-9,24.1,22.2,19.0,23.6,21.1,16.4,98,96,79,30.43,29.77,2,0,0,0.00
2013-12-10,30.4,23.8,19.0,29.9,23.1,16.4,98,97,84,29.83,29.67,3,1,0,0.00
2013-12-11,29.7,20.4,12.2,22.7,17.2,11.1,98,88,59,30.06,29.83,5,1,0,0.00
2013-12-12,14.5,8.4,1.2,10.3,2.2,-3.0,98,77,54,30.18,29.90,6,1,0,0.00
2013-12-13,18.0,8.0,0.7,11.5,1.5,-8.6,98,76,57,30.26,29.80,7,2,0,0.00
2013-12-14,14.0,4.5,-7.1,7.7,-3.0,-9.1,98,73,43,30.49,30.26,3,0,0,0.00
2013-12-15,25.3,12.5,7.3,24.8,12.0,6.9,98,98,98,30.24,29.36,0,0,0,0.00
2013-12-16,17.8,17.0,15.4,14.6,12.8,9.2,87,83,76,29.72,29.68,0,0,0,0.00
2013-12-18,28.6,20.9,10.9,28.1,18.8,10.4,98,92,72,29.91,29.77,0,0,0,0.00
2013-12-19,34.7,28.4,20.1,34.2,27.6,19.6,98,97,82,30.03,29.85,4,0,0,0.00
2013-12-20,35.1,31.9,29.5,34.6,31.4,29.0,98,98,96,30.07,29.84,3,0,0,0.00
2013-12-21,38.7,34.1,30.4,38.2,33.6,29.9,98,98,98,29.86,29.72,2,0,0,0.47
2013-12-22,35.1,31.4,27.9,34.6,30.9,27.4,98,98,98,29.98,29.76,0,0,0,0.71
2013-12-23,32.4,29.9,27.3,31.9,29.4,26.8,98,98,98,30.01,29.89,3,0,0,0.00
2013-12-24,29.8,22.7,10.0,29.3,20.5,3.7,98,91,75,30.08,29.94,5,1,0,0.01
2013-12-25,18.3,9.8,2.7,13.5,4.9,-2.4,98,81,62,30.44,30.08,6,1,0,0.00
2013-12-26,23.7,14.8,7.2,23.2,14.3,6.8,98,98,98,30.40,29.99,1,0,0,0.00
2013-12-27,30.0,25.4,19.9,28.3,22.9,19.4,98,90,70,30.09,30.02,0,0,0,0.00
2013-12-28,37.4,26.5,12.2,36.9,26.0,11.7,98,98,93,30.06,29.83,5,1,0,0.18
2013-12-29,36.0,30.3,25.2,35.5,29.8,24.7,98,98,98,29.92,29.47,4,0,0,0.01
2013-12-30,33.4,19.6,-1.3,32.9,17.0,-1.7,98,90,65,30.06,29.44,5,1,0,0.00
2013-12-31,11.5,3.3,-4.0,8.2,-0.3,-5.5,98,85,59,30.04,29.89,4,0,0,0.00
2014-1-1,17.6,10.8,3.7,10.6,5.4,-1.5,98,79,58,30.27,29.97,5,1,0,0.00
2014-1-2,8.1,2.9,-2.0,5.0,-0.1,-4.3,98,88,59,30.26,29.89,4,0,0,0.00